sensor_id;sensor_type;location;lat;lon;timestamp;temperature;humidity
24444;DHT22;13346;50.984;5.822;2023-07-29T00:00:24;18.90;99.90
24444;DHT22;13346;50.984;5.822;2023-07-29T00:02:52;18.90;99.90
24444;DHT22;13346;50.984;5.822;2023-07-29T00:05:19;18.90;99.90
24444;DHT22;13346;50.984;5.822;2023-07-29T00:07:47;19.00;99.90
24444;DHT22;13346;50.984;5.822;2023-07-29T00:10:14;19.00;99.90
24444;DHT22;13346;50.984;5.822;2023-07-29T00:12:41;19.20;99.90
24444;DHT22;13346;50.984;5.822;2023-07-29T00:15:11;19.30;99.90
24444;DHT22;13346;50.984;5.822;2023-07-29T00:17:39;19.30;99.90
24444;DHT22;13346;50.984;5.822;2023-07-29T00:20:07;19.20;99.90
24444;DHT22;13346;50.984;5.822;2023-07-29T00:22:35;19.20;99.90
24444;DHT22;13346;50.984;5.822;2023-07-29T00:25:02;19.00;99.90
24444;DHT22;13346;50.984;5.822;2023-07-29T00:27:30;19.00;99.90
24444;DHT22;13346;50.984;5.822;2023-07-29T00:29:57;19.00;99.90
24444;DHT22;13346;50.984;5.822;2023-07-29T00:32:29;18.90;99.90
24444;DHT22;13346;50.984;5.822;2023-07-29T00:34:56;19.00;99.90
24444;DHT22;13346;50.984;5.822;2023-07-29T00:37:27;19.00;99.90
24444;DHT22;13346;50.984;5.822;2023-07-29T00:39:54;19.00;99.90
24444;DHT22;13346;50.984;5.822;2023-07-29T00:42:22;19.00;99.90
24444;DHT22;13346;50.984;5.822;2023-07-29T00:44:49;19.20;99.90
24444;DHT22;13346;50.984;5.822;2023-07-29T00:47:16;19.50;99.90
24444;DHT22;13346;50.984;5.822;2023-07-29T00:49:46;19.30;99.90
24444;DHT22;13346;50.984;5.822;2023-07-29T00:52:13;19.10;99.90
24444;DHT22;13346;50.984;5.822;2023-07-29T00:54:41;19.00;99.90
24444;DHT22;13346;50.984;5.822;2023-07-29T00:57:10;19.00;99.90
24444;DHT22;13346;50.984;5.822;2023-07-29T00:59:40;19.00;99.90
24444;DHT22;13346;50.984;5.822;2023-07-29T01:02:08;19.00;99.90
24444;DHT22;13346;50.984;5.822;2023-07-29T01:04:36;19.20;99.90
24444;DHT22;13346;50.984;5.822;2023-07-29T01:07:11;19.20;99.90
24444;DHT22;13346;50.984;5.822;2023-07-29T01:09:46;19.20;99.90
24444;DHT22;13346;50.984;5.822;2023-07-29T01:12:22;19.20;99.90
24444;DHT22;13346;50.984;5.822;2023-07-29T01:14:55;19.30;99.90
24444;DHT22;13346;50.984;5.822;2023-07-29T01:17:28;19.40;99.90
24444;DHT22;13346;50.984;5.822;2023-07-29T01:20:00;19.30;99.90
24444;DHT22;13346;50.984;5.822;2023-07-29T01:22:34;19.20;99.90
24444;DHT22;13346;50.984;5.822;2023-07-29T01:25:03;19.20;99.90
24444;DHT22;13346;50.984;5.822;2023-07-29T01:27:31;19.30;99.90
24444;DHT22;13346;50.984;5.822;2023-07-29T01:29:59;19.10;99.90
24444;DHT22;13346;50.984;5.822;2023-07-29T01:32:29;19.00;99.90
24444;DHT22;13346;50.984;5.822;2023-07-29T01:35:07;19.00;99.90
24444;DHT22;13346;50.984;5.822;2023-07-29T01:37:38;18.90;99.90
24444;DHT22;13346;50.984;5.822;2023-07-29T01:40:09;18.90;99.90
24444;DHT22;13346;50.984;5.822;2023-07-29T01:42:37;18.90;99.90
24444;DHT22;13346;50.984;5.822;2023-07-29T01:45:05;18.90;99.90
24444;DHT22;13346;50.984;5.822;2023-07-29T01:47:33;18.80;99.90
24444;DHT22;13346;50.984;5.822;2023-07-29T01:50:00;18.80;99.90
24444;DHT22;13346;50.984;5.822;2023-07-29T01:52:29;18.80;99.90
24444;DHT22;13346;50.984;5.822;2023-07-29T01:54:57;18.90;99.90
24444;DHT22;13346;50.984;5.822;2023-07-29T01:57:26;18.80;99.90
24444;DHT22;13346;50.984;5.822;2023-07-29T01:59:53;18.80;99.90
24444;DHT22;13346;50.984;5.822;2023-07-29T02:02:21;18.70;99.90
24444;DHT22;13346;50.984;5.822;2023-07-29T02:04:48;18.70;99.90
24444;DHT22;13346;50.984;5.822;2023-07-29T02:07:18;18.50;99.90
24444;DHT22;13346;50.984;5.822;2023-07-29T02:09:46;18.40;99.90
24444;DHT22;13346;50.984;5.822;2023-07-29T02:12:13;18.30;99.90
24444;DHT22;13346;50.984;5.822;2023-07-29T02:14:42;18.30;99.90
24444;DHT22;13346;50.984;5.822;2023-07-29T02:17:09;18.20;99.90
24444;DHT22;13346;50.984;5.822;2023-07-29T02:19:37;18.30;99.90
24444;DHT22;13346;50.984;5.822;2023-07-29T02:22:05;18.20;99.90
24444;DHT22;13346;50.984;5.822;2023-07-29T02:24:32;18.20;99.90
24444;DHT22;13346;50.984;5.822;2023-07-29T02:27:00;18.20;99.90
24444;DHT22;13346;50.984;5.822;2023-07-29T02:29:27;18.20;99.90
24444;DHT22;13346;50.984;5.822;2023-07-29T02:31:56;18.20;99.90
24444;DHT22;13346;50.984;5.822;2023-07-29T02:34:24;18.10;99.90
24444;DHT22;13346;50.984;5.822;2023-07-29T02:36:51;18.20;99.90
24444;DHT22;13346;50.984;5.822;2023-07-29T02:39:18;18.10;99.90
24444;DHT22;13346;50.984;5.822;2023-07-29T02:41:46;18.10;99.90
24444;DHT22;13346;50.984;5.822;2023-07-29T02:44:13;18.10;99.90
24444;DHT22;13346;50.984;5.822;2023-07-29T02:46:40;18.10;99.90
24444;DHT22;13346;50.984;5.822;2023-07-29T02:49:09;18.10;99.90
24444;DHT22;13346;50.984;5.822;2023-07-29T02:51:37;18.10;99.90
24444;DHT22;13346;50.984;5.822;2023-07-29T02:54:04;18.10;99.90
24444;DHT22;13346;50.984;5.822;2023-07-29T02:56:31;18.10;99.90
24444;DHT22;13346;50.984;5.822;2023-07-29T02:58:59;18.10;99.90
24444;DHT22;13346;50.984;5.822;2023-07-29T03:01:27;18.10;99.90
24444;DHT22;13346;50.984;5.822;2023-07-29T03:03:54;18.00;99.90
24444;DHT22;13346;50.984;5.822;2023-07-29T03:06:23;18.00;99.90
24444;DHT22;13346;50.984;5.822;2023-07-29T03:08:51;17.90;99.90
24444;DHT22;13346;50.984;5.822;2023-07-29T03:11:18;17.80;99.90
24444;DHT22;13346;50.984;5.822;2023-07-29T03:13:46;18.00;99.90
24444;DHT22;13346;50.984;5.822;2023-07-29T03:16:15;18.00;99.90
24444;DHT22;13346;50.984;5.822;2023-07-29T03:18:44;18.00;99.90
24444;DHT22;13346;50.984;5.822;2023-07-29T03:21:11;17.90;99.90
24444;DHT22;13346;50.984;5.822;2023-07-29T03:23:41;17.90;99.90
24444;DHT22;13346;50.984;5.822;2023-07-29T03:26:08;17.80;99.90
24444;DHT22;13346;50.984;5.822;2023-07-29T03:28:38;17.80;99.90
24444;DHT22;13346;50.984;5.822;2023-07-29T03:31:06;17.70;99.90
24444;DHT22;13346;50.984;5.822;2023-07-29T03:33:33;17.70;99.90
24444;DHT22;13346;50.984;5.822;2023-07-29T03:36:01;17.70;99.90
24444;DHT22;13346;50.984;5.822;2023-07-29T03:38:28;17.70;99.90
24444;DHT22;13346;50.984;5.822;2023-07-29T03:40:57;17.70;99.90
24444;DHT22;13346;50.984;5.822;2023-07-29T03:43:25;17.60;99.90
24444;DHT22;13346;50.984;5.822;2023-07-29T03:45:52;17.60;99.90
24444;DHT22;13346;50.984;5.822;2023-07-29T03:48:20;17.60;99.90
24444;DHT22;13346;50.984;5.822;2023-07-29T03:50:47;17.60;99.90
24444;DHT22;13346;50.984;5.822;2023-07-29T03:53:14;17.60;99.90
24444;DHT22;13346;50.984;5.822;2023-07-29T03:55:42;17.60;99.90
24444;DHT22;13346;50.984;5.822;2023-07-29T03:58:12;17.50;99.90
24444;DHT22;13346;50.984;5.822;2023-07-29T04:00:39;17.50;99.90
24444;DHT22;13346;50.984;5.822;2023-07-29T04:03:08;17.40;99.90
24444;DHT22;13346;50.984;5.822;2023-07-29T04:05:35;17.50;99.90
24444;DHT22;13346;50.984;5.822;2023-07-29T04:08:03;17.50;99.90
24444;DHT22;13346;50.984;5.822;2023-07-29T04:10:30;17.50;99.90
24444;DHT22;13346;50.984;5.822;2023-07-29T04:12:58;17.40;99.90
24444;DHT22;13346;50.984;5.822;2023-07-29T04:15:27;17.40;99.90
24444;DHT22;13346;50.984;5.822;2023-07-29T04:17:54;17.40;99.90
24444;DHT22;13346;50.984;5.822;2023-07-29T04:20:22;17.30;99.90
24444;DHT22;13346;50.984;5.822;2023-07-29T04:22:49;17.20;99.90
24444;DHT22;13346;50.984;5.822;2023-07-29T04:25:16;17.10;99.90
24444;DHT22;13346;50.984;5.822;2023-07-29T04:27:44;17.10;99.90
24444;DHT22;13346;50.984;5.822;2023-07-29T04:30:11;17.10;99.90
24444;DHT22;13346;50.984;5.822;2023-07-29T04:32:40;17.20;99.90
24444;DHT22;13346;50.984;5.822;2023-07-29T04:35:08;17.30;99.90
24444;DHT22;13346;50.984;5.822;2023-07-29T04:37:35;17.20;99.90
24444;DHT22;13346;50.984;5.822;2023-07-29T04:40:03;17.20;99.90
24444;DHT22;13346;50.984;5.822;2023-07-29T04:42:31;17.20;99.90
24444;DHT22;13346;50.984;5.822;2023-07-29T04:44:58;17.20;99.90
24444;DHT22;13346;50.984;5.822;2023-07-29T04:47:26;17.10;99.90
24444;DHT22;13346;50.984;5.822;2023-07-29T04:49:55;17.20;99.90
24444;DHT22;13346;50.984;5.822;2023-07-29T04:52:22;17.30;99.90
24444;DHT22;13346;50.984;5.822;2023-07-29T04:54:50;17.30;99.90
24444;DHT22;13346;50.984;5.822;2023-07-29T04:57:17;17.20;99.90
24444;DHT22;13346;50.984;5.822;2023-07-29T04:59:45;17.20;99.90
24444;DHT22;13346;50.984;5.822;2023-07-29T05:02:12;17.20;99.90
24444;DHT22;13346;50.984;5.822;2023-07-29T05:04:40;17.20;99.90
24444;DHT22;13346;50.984;5.822;2023-07-29T05:07:09;17.20;99.90
24444;DHT22;13346;50.984;5.822;2023-07-29T05:09:36;17.20;99.90
24444;DHT22;13346;50.984;5.822;2023-07-29T05:12:04;17.30;99.90
24444;DHT22;13346;50.984;5.822;2023-07-29T05:14:32;17.30;99.90
24444;DHT22;13346;50.984;5.822;2023-07-29T05:16:59;17.30;99.90
24444;DHT22;13346;50.984;5.822;2023-07-29T05:19:26;17.30;99.90
24444;DHT22;13346;50.984;5.822;2023-07-29T05:21:54;17.30;99.90
24444;DHT22;13346;50.984;5.822;2023-07-29T05:24:23;17.30;99.90
24444;DHT22;13346;50.984;5.822;2023-07-29T05:26:50;17.30;99.90
24444;DHT22;13346;50.984;5.822;2023-07-29T05:29:17;17.30;99.90
24444;DHT22;13346;50.984;5.822;2023-07-29T05:31:44;17.20;99.90
24444;DHT22;13346;50.984;5.822;2023-07-29T05:34:12;17.10;99.90
24444;DHT22;13346;50.984;5.822;2023-07-29T05:36:39;17.10;99.90
24444;DHT22;13346;50.984;5.822;2023-07-29T05:39:07;17.10;99.90
24444;DHT22;13346;50.984;5.822;2023-07-29T05:41:35;17.10;99.90
24444;DHT22;13346;50.984;5.822;2023-07-29T05:44:03;17.10;99.90
24444;DHT22;13346;50.984;5.822;2023-07-29T05:46:30;17.20;99.90
24444;DHT22;13346;50.984;5.822;2023-07-29T05:48:58;17.30;99.90
24444;DHT22;13346;50.984;5.822;2023-07-29T05:51:25;17.30;99.90
24444;DHT22;13346;50.984;5.822;2023-07-29T05:53:52;17.40;99.90
24444;DHT22;13346;50.984;5.822;2023-07-29T05:56:20;17.40;99.90
24444;DHT22;13346;50.984;5.822;2023-07-29T05:58:49;17.40;99.90
24444;DHT22;13346;50.984;5.822;2023-07-29T06:01:16;17.50;99.90
24444;DHT22;13346;50.984;5.822;2023-07-29T06:03:47;17.50;99.90
24444;DHT22;13346;50.984;5.822;2023-07-29T06:06:14;17.70;99.90
24444;DHT22;13346;50.984;5.822;2023-07-29T06:08:41;17.60;99.90
24444;DHT22;13346;50.984;5.822;2023-07-29T06:11:09;17.70;99.90
24444;DHT22;13346;50.984;5.822;2023-07-29T06:13:36;17.80;99.90
24444;DHT22;13346;50.984;5.822;2023-07-29T06:16:05;18.20;99.90
24444;DHT22;13346;50.984;5.822;2023-07-29T06:18:32;17.80;99.90
24444;DHT22;13346;50.984;5.822;2023-07-29T06:20:59;18.00;99.90
24444;DHT22;13346;50.984;5.822;2023-07-29T06:23:27;18.20;99.90
24444;DHT22;13346;50.984;5.822;2023-07-29T06:25:54;18.90;99.90
24444;DHT22;13346;50.984;5.822;2023-07-29T06:28:21;18.60;99.90
24444;DHT22;13346;50.984;5.822;2023-07-29T06:30:49;18.50;99.90
24444;DHT22;13346;50.984;5.822;2023-07-29T06:33:17;18.30;99.90
24444;DHT22;13346;50.984;5.822;2023-07-29T06:35:45;18.10;99.90
24444;DHT22;13346;50.984;5.822;2023-07-29T06:38:12;18.00;99.90
24444;DHT22;13346;50.984;5.822;2023-07-29T06:40:39;17.90;99.90
24444;DHT22;13346;50.984;5.822;2023-07-29T06:43:07;18.20;99.90
24444;DHT22;13346;50.984;5.822;2023-07-29T06:45:34;18.00;99.90
24444;DHT22;13346;50.984;5.822;2023-07-29T06:48:01;18.00;99.90
24444;DHT22;13346;50.984;5.822;2023-07-29T06:50:30;18.00;99.90
24444;DHT22;13346;50.984;5.822;2023-07-29T06:52:58;18.10;99.90
24444;DHT22;13346;50.984;5.822;2023-07-29T06:55:25;18.50;99.90
24444;DHT22;13346;50.984;5.822;2023-07-29T06:57:52;19.70;99.90
24444;DHT22;13346;50.984;5.822;2023-07-29T07:00:19;21.10;99.90
24444;DHT22;13346;50.984;5.822;2023-07-29T07:02:47;21.70;99.90
24444;DHT22;13346;50.984;5.822;2023-07-29T07:05:14;21.60;99.90
24444;DHT22;13346;50.984;5.822;2023-07-29T07:07:43;21.20;99.90
24444;DHT22;13346;50.984;5.822;2023-07-29T07:10:10;21.40;99.90
24444;DHT22;13346;50.984;5.822;2023-07-29T07:12:38;22.40;99.90
24444;DHT22;13346;50.984;5.822;2023-07-29T07:15:06;22.20;99.90
24444;DHT22;13346;50.984;5.822;2023-07-29T07:17:34;21.60;99.90
24444;DHT22;13346;50.984;5.822;2023-07-29T07:20:01;21.50;99.90
24444;DHT22;13346;50.984;5.822;2023-07-29T07:22:29;19.80;99.90
24444;DHT22;13346;50.984;5.822;2023-07-29T07:24:58;20.20;99.90
24444;DHT22;13346;50.984;5.822;2023-07-29T07:27:25;19.90;99.90
24444;DHT22;13346;50.984;5.822;2023-07-29T07:29:52;21.20;99.90
24444;DHT22;13346;50.984;5.822;2023-07-29T07:32:19;21.80;99.90
24444;DHT22;13346;50.984;5.822;2023-07-29T07:34:47;20.40;99.90
24444;DHT22;13346;50.984;5.822;2023-07-29T07:37:14;20.00;99.90
24444;DHT22;13346;50.984;5.822;2023-07-29T07:39:41;20.00;99.90
24444;DHT22;13346;50.984;5.822;2023-07-29T07:42:10;20.10;99.90
24444;DHT22;13346;50.984;5.822;2023-07-29T07:44:37;20.00;99.90
24444;DHT22;13346;50.984;5.822;2023-07-29T07:47:05;19.80;99.90
24444;DHT22;13346;50.984;5.822;2023-07-29T07:49:32;19.50;99.90
24444;DHT22;13346;50.984;5.822;2023-07-29T07:52:00;19.30;99.90
24444;DHT22;13346;50.984;5.822;2023-07-29T07:54:27;20.80;99.90
24444;DHT22;13346;50.984;5.822;2023-07-29T07:56:54;21.40;99.90
24444;DHT22;13346;50.984;5.822;2023-07-29T07:59:23;20.10;99.90
24444;DHT22;13346;50.984;5.822;2023-07-29T08:01:50;20.10;99.90
24444;DHT22;13346;50.984;5.822;2023-07-29T08:04:18;20.30;99.90
24444;DHT22;13346;50.984;5.822;2023-07-29T08:06:45;20.00;99.90
24444;DHT22;13346;50.984;5.822;2023-07-29T08:09:13;20.60;99.90
24444;DHT22;13346;50.984;5.822;2023-07-29T08:11:40;20.30;99.90
24444;DHT22;13346;50.984;5.822;2023-07-29T08:14:08;20.40;99.90
24444;DHT22;13346;50.984;5.822;2023-07-29T08:16:36;20.90;99.90
24444;DHT22;13346;50.984;5.822;2023-07-29T08:19:04;20.20;99.90
24444;DHT22;13346;50.984;5.822;2023-07-29T08:21:33;20.10;99.90
24444;DHT22;13346;50.984;5.822;2023-07-29T08:24:00;20.10;99.90
24444;DHT22;13346;50.984;5.822;2023-07-29T08:26:27;20.10;99.90
24444;DHT22;13346;50.984;5.822;2023-07-29T08:28:55;19.50;99.90
24444;DHT22;13346;50.984;5.822;2023-07-29T08:31:22;19.70;99.90
24444;DHT22;13346;50.984;5.822;2023-07-29T08:33:51;20.00;99.90
24444;DHT22;13346;50.984;5.822;2023-07-29T08:36:18;19.80;99.90
24444;DHT22;13346;50.984;5.822;2023-07-29T08:38:46;19.70;99.90
24444;DHT22;13346;50.984;5.822;2023-07-29T08:41:14;19.80;99.90
24444;DHT22;13346;50.984;5.822;2023-07-29T08:43:50;19.60;99.90
24444;DHT22;13346;50.984;5.822;2023-07-29T08:46:19;19.70;99.90
24444;DHT22;13346;50.984;5.822;2023-07-29T08:48:47;20.20;99.90
24444;DHT22;13346;50.984;5.822;2023-07-29T08:51:17;20.10;99.90
24444;DHT22;13346;50.984;5.822;2023-07-29T08:53:45;20.70;99.90
24444;DHT22;13346;50.984;5.822;2023-07-29T08:56:12;20.40;99.90
24444;DHT22;13346;50.984;5.822;2023-07-29T08:58:40;20.60;99.90
24444;DHT22;13346;50.984;5.822;2023-07-29T09:01:08;20.80;99.90
24444;DHT22;13346;50.984;5.822;2023-07-29T09:03:37;21.40;99.90
24444;DHT22;13346;50.984;5.822;2023-07-29T09:06:04;20.80;99.90
24444;DHT22;13346;50.984;5.822;2023-07-29T09:08:34;21.00;99.90
24444;DHT22;13346;50.984;5.822;2023-07-29T09:11:02;21.00;99.90
24444;DHT22;13346;50.984;5.822;2023-07-29T09:13:29;20.60;99.90
24444;DHT22;13346;50.984;5.822;2023-07-29T09:15:57;21.00;99.90
24444;DHT22;13346;50.984;5.822;2023-07-29T09:18:27;21.40;99.90
24444;DHT22;13346;50.984;5.822;2023-07-29T09:20:54;21.10;99.90
24444;DHT22;13346;50.984;5.822;2023-07-29T09:23:26;21.70;99.90
24444;DHT22;13346;50.984;5.822;2023-07-29T09:26:02;21.50;99.90
24444;DHT22;13346;50.984;5.822;2023-07-29T09:28:33;21.90;99.90
24444;DHT22;13346;50.984;5.822;2023-07-29T09:31:01;22.70;99.90
24444;DHT22;13346;50.984;5.822;2023-07-29T09:33:29;22.40;99.90
24444;DHT22;13346;50.984;5.822;2023-07-29T09:35:57;22.10;99.90
24444;DHT22;13346;50.984;5.822;2023-07-29T09:38:28;23.20;99.90
24444;DHT22;13346;50.984;5.822;2023-07-29T09:40:56;22.60;99.90
24444;DHT22;13346;50.984;5.822;2023-07-29T09:43:29;22.10;99.90
24444;DHT22;13346;50.984;5.822;2023-07-29T09:46:00;21.90;99.90
24444;DHT22;13346;50.984;5.822;2023-07-29T09:48:32;22.10;99.90
24444;DHT22;13346;50.984;5.822;2023-07-29T09:50:59;21.90;99.90
24444;DHT22;13346;50.984;5.822;2023-07-29T09:53:27;22.00;99.90
24444;DHT22;13346;50.984;5.822;2023-07-29T09:55:54;22.00;99.90
24444;DHT22;13346;50.984;5.822;2023-07-29T09:58:27;22.20;99.90
24444;DHT22;13346;50.984;5.822;2023-07-29T10:00:55;22.40;99.90
24444;DHT22;13346;50.984;5.822;2023-07-29T10:03:22;21.90;99.90
24444;DHT22;13346;50.984;5.822;2023-07-29T10:05:50;22.20;99.90
24444;DHT22;13346;50.984;5.822;2023-07-29T10:08:19;21.80;99.90
24444;DHT22;13346;50.984;5.822;2023-07-29T10:10:47;21.70;99.90
24444;DHT22;13346;50.984;5.822;2023-07-29T10:13:16;21.90;99.90
24444;DHT22;13346;50.984;5.822;2023-07-29T10:15:45;21.60;99.90
24444;DHT22;13346;50.984;5.822;2023-07-29T10:18:13;21.80;99.90
24444;DHT22;13346;50.984;5.822;2023-07-29T10:20:42;21.50;99.90
24444;DHT22;13346;50.984;5.822;2023-07-29T10:23:11;21.40;99.90
24444;DHT22;13346;50.984;5.822;2023-07-29T10:25:45;21.20;99.90
24444;DHT22;13346;50.984;5.822;2023-07-29T10:28:15;21.60;99.90
24444;DHT22;13346;50.984;5.822;2023-07-29T10:30:47;21.70;99.90
24444;DHT22;13346;50.984;5.822;2023-07-29T10:33:14;22.20;99.90
24444;DHT22;13346;50.984;5.822;2023-07-29T10:35:42;22.90;99.90
24444;DHT22;13346;50.984;5.822;2023-07-29T10:38:10;22.80;99.90
24444;DHT22;13346;50.984;5.822;2023-07-29T10:40:45;22.40;99.90
24444;DHT22;13346;50.984;5.822;2023-07-29T10:43:18;22.10;99.90
24444;DHT22;13346;50.984;5.822;2023-07-29T10:45:47;21.80;99.90
24444;DHT22;13346;50.984;5.822;2023-07-29T10:48:39;21.90;99.90
24444;DHT22;13346;50.984;5.822;2023-07-29T10:51:25;22.10;99.90
24444;DHT22;13346;50.984;5.822;2023-07-29T10:53:56;22.40;99.90
24444;DHT22;13346;50.984;5.822;2023-07-29T10:56:28;22.00;99.90
24444;DHT22;13346;50.984;5.822;2023-07-29T10:58:57;22.90;99.90
24444;DHT22;13346;50.984;5.822;2023-07-29T11:01:30;23.20;99.90
24444;DHT22;13346;50.984;5.822;2023-07-29T11:04:23;23.10;99.90
24444;DHT22;13346;50.984;5.822;2023-07-29T11:07:24;22.90;99.90
24444;DHT22;13346;50.984;5.822;2023-07-29T11:10:01;23.80;99.90
24444;DHT22;13346;50.984;5.822;2023-07-29T11:12:40;22.80;99.90
24444;DHT22;13346;50.984;5.822;2023-07-29T11:15:19;22.90;99.90
24444;DHT22;13346;50.984;5.822;2023-07-29T11:17:50;24.20;99.90
24444;DHT22;13346;50.984;5.822;2023-07-29T11:20:19;23.10;99.90
24444;DHT22;13346;50.984;5.822;2023-07-29T11:22:47;23.50;99.90
24444;DHT22;13346;50.984;5.822;2023-07-29T11:25:16;22.60;99.90
24444;DHT22;13346;50.984;5.822;2023-07-29T11:27:45;22.90;99.90
24444;DHT22;13346;50.984;5.822;2023-07-29T11:30:14;22.80;99.90
24444;DHT22;13346;50.984;5.822;2023-07-29T11:32:42;22.40;99.90
24444;DHT22;13346;50.984;5.822;2023-07-29T11:35:13;21.90;99.90
24444;DHT22;13346;50.984;5.822;2023-07-29T11:37:44;22.70;99.90
24444;DHT22;13346;50.984;5.822;2023-07-29T11:40:15;23.10;99.90
24444;DHT22;13346;50.984;5.822;2023-07-29T11:42:43;23.00;99.90
24444;DHT22;13346;50.984;5.822;2023-07-29T11:45:11;22.90;99.90
24444;DHT22;13346;50.984;5.822;2023-07-29T11:47:38;22.90;99.90
24444;DHT22;13346;50.984;5.822;2023-07-29T11:50:07;22.70;99.90
24444;DHT22;13346;50.984;5.822;2023-07-29T11:52:38;22.60;99.90
24444;DHT22;13346;50.984;5.822;2023-07-29T11:55:06;22.40;99.90
24444;DHT22;13346;50.984;5.822;2023-07-29T11:57:36;22.10;99.90
24444;DHT22;13346;50.984;5.822;2023-07-29T12:00:05;21.80;99.90
24444;DHT22;13346;50.984;5.822;2023-07-29T12:02:34;21.80;99.90
24444;DHT22;13346;50.984;5.822;2023-07-29T12:05:04;21.60;99.90
24444;DHT22;13346;50.984;5.822;2023-07-29T12:07:32;21.50;99.90
24444;DHT22;13346;50.984;5.822;2023-07-29T12:10:02;21.30;99.90
24444;DHT22;13346;50.984;5.822;2023-07-29T12:12:30;21.20;99.90
24444;DHT22;13346;50.984;5.822;2023-07-29T12:14:57;21.20;99.90
24444;DHT22;13346;50.984;5.822;2023-07-29T12:17:25;21.20;99.90
24444;DHT22;13346;50.984;5.822;2023-07-29T12:19:54;20.90;99.90
24444;DHT22;13346;50.984;5.822;2023-07-29T12:22:22;20.70;99.90
24444;DHT22;13346;50.984;5.822;2023-07-29T12:24:51;20.40;99.90
24444;DHT22;13346;50.984;5.822;2023-07-29T12:27:22;20.20;99.90
24444;DHT22;13346;50.984;5.822;2023-07-29T12:29:52;20.20;99.90
24444;DHT22;13346;50.984;5.822;2023-07-29T12:32:20;20.00;99.90
24444;DHT22;13346;50.984;5.822;2023-07-29T12:34:47;19.70;99.90
24444;DHT22;13346;50.984;5.822;2023-07-29T12:37:15;19.60;99.90
24444;DHT22;13346;50.984;5.822;2023-07-29T12:39:42;19.20;99.90
24444;DHT22;13346;50.984;5.822;2023-07-29T12:42:10;19.00;99.90
24444;DHT22;13346;50.984;5.822;2023-07-29T12:44:38;18.70;99.90
24444;DHT22;13346;50.984;5.822;2023-07-29T12:47:07;18.40;99.90
24444;DHT22;13346;50.984;5.822;2023-07-29T12:49:37;18.40;99.90
24444;DHT22;13346;50.984;5.822;2023-07-29T12:52:05;18.40;99.90
24444;DHT22;13346;50.984;5.822;2023-07-29T12:54:33;18.30;99.90
24444;DHT22;13346;50.984;5.822;2023-07-29T12:57:00;18.10;99.90
24444;DHT22;13346;50.984;5.822;2023-07-29T12:59:27;17.90;99.90
24444;DHT22;13346;50.984;5.822;2023-07-29T13:01:56;17.60;99.90
24444;DHT22;13346;50.984;5.822;2023-07-29T13:04:24;17.60;99.90
24444;DHT22;13346;50.984;5.822;2023-07-29T13:06:51;17.60;99.90
24444;DHT22;13346;50.984;5.822;2023-07-29T13:09:19;17.70;99.90
24444;DHT22;13346;50.984;5.822;2023-07-29T13:11:46;17.60;99.90
24444;DHT22;13346;50.984;5.822;2023-07-29T13:14:14;17.70;99.90
24444;DHT22;13346;50.984;5.822;2023-07-29T13:16:41;17.80;99.90
24444;DHT22;13346;50.984;5.822;2023-07-29T13:19:10;18.70;99.90
24444;DHT22;13346;50.984;5.822;2023-07-29T13:21:37;19.80;99.90
24444;DHT22;13346;50.984;5.822;2023-07-29T13:24:04;19.90;99.90
24444;DHT22;13346;50.984;5.822;2023-07-29T13:26:32;21.10;99.90
24444;DHT22;13346;50.984;5.822;2023-07-29T13:28:59;21.40;99.90
24444;DHT22;13346;50.984;5.822;2023-07-29T13:31:27;21.20;99.90
24444;DHT22;13346;50.984;5.822;2023-07-29T13:33:54;22.00;99.90
24444;DHT22;13346;50.984;5.822;2023-07-29T13:36:23;21.10;99.90
24444;DHT22;13346;50.984;5.822;2023-07-29T13:38:51;20.40;99.90
24444;DHT22;13346;50.984;5.822;2023-07-29T13:41:18;19.60;99.90
24444;DHT22;13346;50.984;5.822;2023-07-29T13:43:45;19.40;99.90
24444;DHT22;13346;50.984;5.822;2023-07-29T13:46:12;19.40;99.90
24444;DHT22;13346;50.984;5.822;2023-07-29T13:48:40;19.70;99.90
24444;DHT22;13346;50.984;5.822;2023-07-29T13:51:07;19.80;99.90
24444;DHT22;13346;50.984;5.822;2023-07-29T13:53:36;19.60;99.90
24444;DHT22;13346;50.984;5.822;2023-07-29T13:56:04;19.60;99.90
24444;DHT22;13346;50.984;5.822;2023-07-29T13:58:32;19.80;99.90
24444;DHT22;13346;50.984;5.822;2023-07-29T14:00:59;19.70;99.90
24444;DHT22;13346;50.984;5.822;2023-07-29T14:03:26;19.90;99.90
24444;DHT22;13346;50.984;5.822;2023-07-29T14:05:54;20.00;99.90
24444;DHT22;13346;50.984;5.822;2023-07-29T14:08:21;20.00;99.90
24444;DHT22;13346;50.984;5.822;2023-07-29T14:10:50;20.00;99.90
24444;DHT22;13346;50.984;5.822;2023-07-29T14:13:18;19.80;99.90
24444;DHT22;13346;50.984;5.822;2023-07-29T14:15:45;19.90;99.90
24444;DHT22;13346;50.984;5.822;2023-07-29T14:18:13;19.80;99.90
24444;DHT22;13346;50.984;5.822;2023-07-29T14:20:41;19.70;99.90
24444;DHT22;13346;50.984;5.822;2023-07-29T14:23:08;19.80;99.90
24444;DHT22;13346;50.984;5.822;2023-07-29T14:25:36;19.70;99.90
24444;DHT22;13346;50.984;5.822;2023-07-29T14:28:05;19.60;99.90
24444;DHT22;13346;50.984;5.822;2023-07-29T14:30:32;19.30;99.90
24444;DHT22;13346;50.984;5.822;2023-07-29T14:32:59;19.40;99.90
24444;DHT22;13346;50.984;5.822;2023-07-29T14:35:26;20.70;99.90
24444;DHT22;13346;50.984;5.822;2023-07-29T14:37:54;22.00;99.90
24444;DHT22;13346;50.984;5.822;2023-07-29T14:40:21;22.50;99.90
24444;DHT22;13346;50.984;5.822;2023-07-29T14:42:49;23.60;99.90
24444;DHT22;13346;50.984;5.822;2023-07-29T14:45:18;24.40;99.90
24444;DHT22;13346;50.984;5.822;2023-07-29T14:47:46;24.60;99.90
24444;DHT22;13346;50.984;5.822;2023-07-29T14:50:13;24.30;99.90
24444;DHT22;13346;50.984;5.822;2023-07-29T14:52:40;23.90;99.90
24444;DHT22;13346;50.984;5.822;2023-07-29T14:55:08;23.90;99.90
24444;DHT22;13346;50.984;5.822;2023-07-29T14:57:35;24.30;99.90
24444;DHT22;13346;50.984;5.822;2023-07-29T15:00:04;24.70;99.90
24444;DHT22;13346;50.984;5.822;2023-07-29T15:02:33;23.50;99.90
24444;DHT22;13346;50.984;5.822;2023-07-29T15:05:00;21.60;99.90
24444;DHT22;13346;50.984;5.822;2023-07-29T15:07:28;21.30;99.90
24444;DHT22;13346;50.984;5.822;2023-07-29T15:09:55;21.20;99.90
24444;DHT22;13346;50.984;5.822;2023-07-29T15:12:23;21.80;99.90
24444;DHT22;13346;50.984;5.822;2023-07-29T15:14:51;21.40;99.90
24444;DHT22;13346;50.984;5.822;2023-07-29T15:17:19;21.50;99.90
24444;DHT22;13346;50.984;5.822;2023-07-29T15:19:48;21.40;99.90
24444;DHT22;13346;50.984;5.822;2023-07-29T15:22:15;23.40;99.90
24444;DHT22;13346;50.984;5.822;2023-07-29T15:24:43;23.90;99.90
24444;DHT22;13346;50.984;5.822;2023-07-29T15:27:10;22.50;99.90
24444;DHT22;13346;50.984;5.822;2023-07-29T15:29:38;22.40;99.90
24444;DHT22;13346;50.984;5.822;2023-07-29T15:32:06;22.50;99.90
24444;DHT22;13346;50.984;5.822;2023-07-29T15:34:33;21.70;99.90
24444;DHT22;13346;50.984;5.822;2023-07-29T15:37:02;21.70;99.90